Terminal Aerodrome Forecast
Issued by NWS

Home | Current Version | Previous Version | Graphics & Text | Print | Product List | Glossary On
Versions: 1 2 3 4 5 6 7 8 9 10 11 12 13 14 15 16
000
FTUS43 KMPX 240824 AAA
TAFRWF
TAF AMD
KRWF 240824Z 2408/2506 24006KT P6SM OVC012
      TEMPO 2408/2412 4SM BR BKN005
     FM241200 28006KT P6SM SCT020
     FM241700 28014G20KT P6SM SKC
     FM250000 28007KT P6SM FEW250=

USA.gov is the U.S. government's official web portal to all federal, state and local government web resources and services.